»·PEaware :: AAL855 KABQ-KPHX

AAL855 :: KABQ-KPHX

FLIGHT INFORMATION

Flight Status: Arrived
Operator:
American Airlines
More flights by this operator :: More flights under this callsign
Pilot: Drew L. (13237)
Aircraft: AIRBUS A320
(A320)
More flights by this aircraft type
Origin: KABQ Albuquerque Intl Sunport
United States
Destination: KPHX Phoenix Sky Harbor Intl
United States
More flights between these airports :: More routes between these airports
Route: LARGO3 ZUN EAGUL6
File this flight plan on PilotEdge
Remarks: PBN / A1B1C1D1O1S1 NAV / RNVD1E2A1 DAT / V DOF / 180310 REG / N120US SEL / ALVS RMK / NRP SIMBRIEF
Altitude:
(Current/Filed)
30,000ft
Speed:
(Current/Filed)
474kts
Departed: 09-Mar-18 09:19 PM
Arrived: 09-Mar-18 10:20 PM
Distance/Time
Traveled:
284nm/1:01
Distance/Time
To Go:
Arrived

Flight Plot

Page will automatically refresh every two minutes.

Flight plan parsing failed; only flown route is shown


Map Options




Map Legend


Flown Route
Filed Route
Departure Airport
Arrival Airport
Navaid (VOR, NDB)
Fix

Horizontal Profiles

Position Reports

Time Latitude Longitude Heading Altitude Ground
Speed
09-Mar-18 20:40 35.046926 -106.616395 12 5363ft 0kts
09-Mar-18 20:41 35.046926 -106.616395 12 5363ft 0kts
09-Mar-18 20:42 35.046926 -106.616395 12 5363ft 0kts
09-Mar-18 20:43 35.046926 -106.616395 12 5363ft 0kts
09-Mar-18 20:44 35.046926 -106.616395 12 5363ft 0kts
09-Mar-18 20:45 35.046926 -106.616395 12 5363ft 0kts
09-Mar-18 20:46 35.046926 -106.616395 12 5363ft 0kts
09-Mar-18 20:47 35.046926 -106.616395 12 5363ft 0kts
09-Mar-18 20:48 35.046926 -106.616395 12 5363ft 0kts
09-Mar-18 20:49 35.046926 -106.616395 12 5363ft 0kts
09-Mar-18 20:50 35.046926 -106.616395 12 5363ft 0kts
09-Mar-18 20:51 35.046926 -106.616395 12 5363ft 0kts
09-Mar-18 20:52 35.046926 -106.616395 12 5363ft 0kts
09-Mar-18 20:53 35.046926 -106.616395 12 5363ft 0kts
09-Mar-18 20:54 35.046926 -106.616395 12 5363ft 0kts
09-Mar-18 20:55 35.046926 -106.616395 12 5363ft 0kts
09-Mar-18 20:56 35.046926 -106.616395 12 5363ft 0kts
09-Mar-18 20:57 35.046926 -106.616395 12 5363ft 0kts
09-Mar-18 20:58 35.046926 -106.616395 12 5363ft 0kts
09-Mar-18 20:59 35.046893 -106.616400 36 5363ft 1kts
09-Mar-18 21:00 35.046397 -106.616524 316 5363ft 2kts
09-Mar-18 21:01 35.046284 -106.615829 267 5363ft 2kts
09-Mar-18 21:02 35.046287 -106.615737 267 5363ft 0kts
09-Mar-18 21:03 35.046287 -106.615737 267 5363ft 0kts
09-Mar-18 21:04 35.046287 -106.615737 267 5363ft 0kts
09-Mar-18 21:05 35.046287 -106.615737 267 5363ft 0kts
09-Mar-18 21:06 35.045934 -106.618806 261 5363ft 12kts
09-Mar-18 21:07 35.045893 -106.619057 248 5363ft 0kts
09-Mar-18 21:08 35.045893 -106.619057 248 5363ft 0kts
09-Mar-18 21:09 35.045893 -106.619057 248 5363ft 0kts
09-Mar-18 21:10 35.045893 -106.619058 248 5363ft 0kts
09-Mar-18 21:11 35.045878 -106.619103 246 5363ft 1kts
09-Mar-18 21:12 35.045552 -106.616219 90 5363ft 18kts
09-Mar-18 21:13 35.045785 -106.609264 90 5363ft 26kts
09-Mar-18 21:14 35.045735 -106.600317 89 5363ft 24kts
09-Mar-18 21:15 35.045814 -106.592143 89 5363ft 27kts
09-Mar-18 21:16 35.045757 -106.582671 89 5363ft 26kts
09-Mar-18 21:17 35.044535 -106.575704 180 5363ft 18kts
09-Mar-18 21:18 35.044135 -106.590313 271 5363ft 151kts
09-Mar-18 21:19 35.044640 -106.654035 268 7688ft 202kts
09-Mar-18 21:20 35.020947 -106.730579 219 8037ft 281kts
09-Mar-18 21:21 34.995891 -106.816907 268 9876ft 295kts
09-Mar-18 21:22 34.995517 -106.924487 269 11578ft 348kts
09-Mar-18 21:23 34.994979 -107.051452 269 12656ft 394kts
09-Mar-18 21:24 34.994176 -107.186576 270 14563ft 402kts
09-Mar-18 21:25 34.993237 -107.317925 271 17021ft 388kts
09-Mar-18 21:26 34.992219 -107.451303 271 18419ft 397kts
09-Mar-18 21:27 34.991006 -107.585867 271 19848ft 400kts
09-Mar-18 21:28 34.989641 -107.721172 270 21127ft 405kts
09-Mar-18 21:29 34.988097 -107.858905 270 22327ft 409kts
09-Mar-18 21:30 34.986380 -107.997927 270 23406ft 413kts
09-Mar-18 21:31 34.984483 -108.138429 270 24384ft 416kts
09-Mar-18 21:32 34.982419 -108.278329 271 25702ft 409kts
09-Mar-18 21:33 34.958333 -108.412826 257 27024ft 407kts
09-Mar-18 21:34 34.926622 -108.543764 258 28331ft 400kts
09-Mar-18 21:35 34.895899 -108.669862 258 29560ft 393kts
09-Mar-18 21:36 34.864847 -108.796672 258 30109ft 389kts
09-Mar-18 21:37 34.834104 -108.921628 258 30112ft 390kts
09-Mar-18 21:38 34.802851 -109.047979 258 30112ft 390kts
09-Mar-18 21:39 34.771499 -109.174098 258 30104ft 391kts
09-Mar-18 21:40 34.739896 -109.300566 258 30105ft 391kts
09-Mar-18 21:41 34.708135 -109.427067 258 30113ft 391kts
09-Mar-18 21:42 34.675346 -109.552718 258 30114ft 391kts
09-Mar-18 21:43 34.648085 -109.660130 257 30115ft 391kts
09-Mar-18 21:44 34.619768 -109.772013 257 30119ft 393kts
09-Mar-18 21:45 34.587753 -109.898074 257 30125ft 393kts
09-Mar-18 21:46 34.574018 -109.951983 257 30123ft 393kts
09-Mar-18 21:47 34.542875 -110.073792 256 30207ft 389kts
09-Mar-18 21:48 34.511010 -110.197874 256 30165ft 386kts
09-Mar-18 21:49 34.479126 -110.321475 256 30129ft 385kts
09-Mar-18 21:50 34.447090 -110.445110 256 29267ft 389kts
09-Mar-18 21:51 34.414314 -110.570991 255 28314ft 394kts
09-Mar-18 21:52 34.386185 -110.678532 255 27496ft 399kts
09-Mar-18 21:53 34.345253 -110.802787 240 26448ft 407kts
09-Mar-18 21:54 34.270669 -110.903509 232 24505ft 392kts
09-Mar-18 21:55 34.200874 -110.993411 233 23804ft 345kts
09-Mar-18 21:56 34.139458 -111.072494 233 23221ft 303kts
09-Mar-18 21:57 34.082761 -111.145528 233 21907ft 298kts
09-Mar-18 21:58 34.026755 -111.217439 232 20461ft 294kts
09-Mar-18 21:59 33.971349 -111.288387 232 19025ft 290kts
09-Mar-18 21:59 33.925528 -111.346945 231 17830ft 287kts
09-Mar-18 22:01 33.870529 -111.423310 242 16629ft 268kts
09-Mar-18 22:01 33.838299 -111.484898 241 15587ft 265kts
09-Mar-18 22:02 33.800077 -111.557645 241 14344ft 262kts
09-Mar-18 22:03 33.761228 -111.630788 240 13098ft 264kts
09-Mar-18 22:05 33.716075 -111.715355 240 12123ft 247kts
09-Mar-18 22:06 33.687021 -111.769926 240 11476ft 237kts
09-Mar-18 22:07 33.651703 -111.836564 238 10421ft 243kts
09-Mar-18 22:08 33.617227 -111.901383 240 9829ft 232kts
09-Mar-18 22:09 33.582677 -111.966342 238 8755ft 243kts
09-Mar-18 22:10 33.545540 -112.036025 238 7627ft 257kts
09-Mar-18 22:11 33.525229 -112.110589 272 6990ft 230kts
09-Mar-18 22:12 33.524680 -112.177674 270 6300ft 191kts
09-Mar-18 22:13 33.505091 -112.228951 181 5051ft 194kts
09-Mar-18 22:14 33.461478 -112.198050 140 3687ft 185kts
09-Mar-18 22:15 33.442862 -112.148783 99 3007ft 146kts
09-Mar-18 22:16 33.441012 -112.099211 87 2346ft 150kts
09-Mar-18 22:17 33.440906 -112.050523 87 1564ft 149kts
09-Mar-18 22:18 33.440822 -112.007138 89 1143ft 65kts
09-Mar-18 22:19 33.439307 -111.998336 165 1143ft 11kts
09-Mar-18 22:20 33.438692 -111.996283 159 1143ft 8kts

Navigation Log

Ident Type
Flight plan parsing failed, navigation log unavailable